createdAt,value
2022-10-17T00:00:46.566Z,102750.81
2022-10-17T00:03:13.877Z,102728.97
2022-10-17T00:05:43.326Z,102753.94
2022-10-17T00:08:12.714Z,102754.00
2022-10-17T00:10:40.706Z,102754.00
2022-10-17T00:13:08.696Z,102756.78
2022-10-17T00:15:35.927Z,102753.94
2022-10-17T00:18:03.249Z,102748.78
2022-10-17T00:20:30.681Z,102763.72
2022-10-17T00:22:58.072Z,102754.38
2022-10-17T00:25:25.490Z,102764.50
2022-10-17T00:27:52.581Z,102737.84
2022-10-17T00:30:20.020Z,102764.44
2022-10-17T00:32:47.375Z,102728.53
2022-10-17T00:35:14.693Z,102745.44
2022-10-17T00:37:42.526Z,102765.25
2022-10-17T00:40:10.538Z,102744.59
2022-10-17T00:42:39.026Z,102775.25
2022-10-17T00:45:13.169Z,102777.78
2022-10-17T00:47:47.712Z,102769.38
2022-10-17T00:50:16.743Z,102779.88
2022-10-17T00:52:45.057Z,102756.88
2022-10-17T00:55:25.656Z,102777.44
2022-10-17T00:57:53.640Z,102781.81
2022-10-17T01:00:21.231Z,102772.09
2022-10-17T01:02:48.842Z,102749.84
2022-10-17T01:05:18.896Z,102791.00
2022-10-17T01:07:48.726Z,102778.81
2022-10-17T01:10:17.002Z,102750.59
2022-10-17T01:13:17.665Z,102763.41
2022-10-17T01:15:59.982Z,102769.44
2022-10-17T01:18:43.763Z,102780.75
2022-10-17T01:21:42.631Z,102736.34
2022-10-17T01:24:22.047Z,102779.53
2022-10-17T01:27:01.480Z,102779.16
2022-10-17T01:30:07.359Z,102779.59
2022-10-17T01:32:43.961Z,102770.69
2022-10-17T01:35:19.769Z,102797.22
2022-10-17T01:40:34.268Z,102789.97
2022-10-17T01:43:10.818Z,102788.78
2022-10-17T01:45:48.274Z,102796.47
2022-10-17T01:48:26.068Z,102791.97
2022-10-17T01:51:04.100Z,102802.47
2022-10-17T01:53:39.916Z,102777.78
2022-10-17T01:56:10.092Z,102800.41
2022-10-17T01:58:44.376Z,102815.00
2022-10-17T02:01:13.175Z,102813.00
2022-10-17T02:03:44.036Z,102753.97
2022-10-17T02:06:11.792Z,102801.63
2022-10-17T02:08:48.319Z,102817.81
2022-10-17T02:11:19.742Z,102819.81
2022-10-17T02:13:59.257Z,102818.22
2022-10-17T02:16:42.310Z,102822.22
2022-10-17T02:19:17.878Z,102805.69
2022-10-17T02:21:47.969Z,102818.63
2022-10-17T02:24:30.220Z,102821.84
2022-10-17T02:27:12.104Z,102802.06
2022-10-17T02:30:09.043Z,102829.13
2022-10-17T02:32:50.267Z,102806.09
2022-10-17T02:35:22.511Z,102831.16
2022-10-17T02:37:52.116Z,102830.34
2022-10-17T02:40:24.735Z,102839.25
2022-10-17T02:42:54.855Z,102851.41
2022-10-17T02:45:24.992Z,102841.69
2022-10-17T02:48:05.319Z,102835.22
2022-10-17T02:50:59.193Z,102849.41
2022-10-17T02:53:54.053Z,102844.94
2022-10-17T02:56:22.585Z,102849.00
2022-10-17T02:58:54.662Z,102865.56
2022-10-17T03:01:22.340Z,102851.03
2022-10-17T03:03:49.612Z,102850.19
2022-10-17T03:06:17.294Z,102864.38
2022-10-17T03:08:46.222Z,102853.03
2022-10-17T03:11:13.613Z,102868.84
2022-10-17T03:13:41.040Z,102865.19
2022-10-17T03:16:08.598Z,102868.88
2022-10-17T03:18:36.317Z,102867.25
2022-10-17T03:21:04.845Z,102865.63
2022-10-17T03:23:32.198Z,102809.84
2022-10-17T03:26:07.636Z,102855.13
2022-10-17T03:28:36.297Z,102825.09
2022-10-17T03:31:08.753Z,102865.56
2022-10-17T03:33:39.755Z,102871.28
2022-10-17T03:36:13.856Z,102868.81
2022-10-17T03:38:41.674Z,102874.88
2022-10-17T03:41:09.338Z,102863.97
2022-10-17T03:43:39.861Z,102875.75
2022-10-17T03:46:07.915Z,102875.75
2022-10-17T03:48:36.162Z,102883.81
2022-10-17T03:51:07.350Z,102878.53
2022-10-17T03:53:39.336Z,102894.31
2022-10-17T03:56:15.807Z,102889.06
2022-10-17T03:58:44.569Z,102890.72
2022-10-17T04:01:14.944Z,102880.19
2022-10-17T04:03:42.872Z,102888.69
2022-10-17T04:06:12.993Z,102893.13
2022-10-17T04:08:43.446Z,102889.88
2022-10-17T04:11:17.415Z,102899.22
2022-10-17T04:13:45.757Z,102894.31
2022-10-17T04:16:15.519Z,102886.66
2022-10-17T04:18:56.379Z,102898.38
2022-10-17T04:21:27.717Z,102911.75
2022-10-17T04:23:58.106Z,102909.31
2022-10-17T04:26:42.848Z,102844.50
2022-10-17T04:29:10.233Z,102914.16
2022-10-17T04:31:38.294Z,102918.22
2022-10-17T04:34:14.822Z,102903.63
2022-10-17T04:36:42.609Z,102868.03
2022-10-17T04:39:10.292Z,102916.59
2022-10-17T04:41:38.689Z,102929.56
2022-10-17T04:44:06.242Z,102921.47
2022-10-17T04:46:37.857Z,102925.50
2022-10-17T04:49:06.683Z,102875.34
2022-10-17T04:51:34.131Z,102919.03
2022-10-17T04:54:23.370Z,102928.34
2022-10-17T04:56:57.680Z,102939.66
2022-10-17T04:59:25.905Z,102928.72
2022-10-17T05:02:04.041Z,102940.88
2022-10-17T05:04:32.383Z,102950.16
2022-10-17T05:07:00.942Z,102955.00
2022-10-17T05:09:28.561Z,102952.97
2022-10-17T05:11:55.998Z,102956.22
2022-10-17T05:14:23.303Z,102961.47
2022-10-17T05:16:50.504Z,102965.91
2022-10-17T05:19:18.665Z,102971.19
2022-10-17T05:21:49.224Z,102966.34
2022-10-17T05:24:16.545Z,102939.66
2022-10-17T05:26:43.868Z,102982.56
2022-10-17T05:29:11.310Z,102988.66
2022-10-17T05:31:44.938Z,102981.75
2022-10-17T05:34:13.976Z,102968.78
2022-10-17T05:36:42.318Z,102991.47
2022-10-17T05:39:13.680Z,102980.94
2022-10-17T05:41:41.917Z,102989.06
2022-10-17T05:44:09.098Z,102997.53
2022-10-17T05:46:42.662Z,103002.81
2022-10-17T05:49:25.181Z,102995.50
2022-10-17T05:51:59.580Z,103000.81
2022-10-17T05:54:27.408Z,103007.69
2022-10-17T05:56:55.992Z,103000.00
2022-10-17T05:59:27.349Z,103003.66
2022-10-17T06:02:00.771Z,103029.56
2022-10-17T06:04:28.864Z,103022.69
2022-10-17T06:06:56.547Z,103016.22
2022-10-17T06:09:24.325Z,103006.91
2022-10-17T06:11:54.436Z,103014.19
2022-10-17T06:14:21.996Z,103030.78
2022-10-17T06:16:52.938Z,103038.88
2022-10-17T06:19:20.402Z,102993.13
2022-10-17T06:21:47.870Z,103023.09
2022-10-17T06:24:20.291Z,103007.72
2022-10-17T06:26:50.030Z,103055.03
2022-10-17T06:29:18.183Z,103051.78
2022-10-17T06:31:51.769Z,103025.41
2022-10-17T06:34:20.104Z,103050.09
2022-10-17T06:36:48.449Z,103029.81
2022-10-17T06:39:17.626Z,103008.75
2022-10-17T06:42:04.409Z,102992.56
2022-10-17T06:44:57.604Z,103054.38
2022-10-17T06:47:53.824Z,103034.97
2022-10-17T06:50:33.229Z,103056.34
2022-10-17T06:53:16.660Z,103048.34
2022-10-17T06:56:09.763Z,103062.13
2022-10-17T06:59:06.289Z,103062.41
2022-10-17T07:01:40.678Z,103057.06
2022-10-17T07:04:11.715Z,103061.38
2022-10-17T07:06:39.727Z,103021.28
2022-10-17T07:09:14.122Z,103053.97
2022-10-17T07:11:41.532Z,103053.91
2022-10-17T07:14:08.849Z,103064.50
2022-10-17T07:16:36.522Z,103069.38
2022-10-17T07:19:13.389Z,103087.94
2022-10-17T07:21:40.856Z,103089.06
2022-10-17T07:24:10.770Z,103071.13
2022-10-17T07:26:39.649Z,103076.00
2022-10-17T07:29:07.693Z,103082.78
2022-10-17T07:31:39.462Z,103080.75
2022-10-17T07:34:06.835Z,103081.91
2022-10-17T07:36:34.152Z,103081.53
2022-10-17T07:39:05.156Z,103077.53
2022-10-17T07:41:33.539Z,103081.00
2022-10-17T07:44:00.999Z,103051.53
2022-10-17T07:46:35.881Z,103076.31
2022-10-17T07:49:03.442Z,103087.53
2022-10-17T07:51:30.681Z,103069.88
2022-10-17T07:53:57.984Z,103078.50
2022-10-17T07:56:27.659Z,103066.28
2022-10-17T07:58:54.773Z,103061.78
2022-10-17T08:01:21.958Z,103078.38
2022-10-17T08:03:49.458Z,103045.84
2022-10-17T08:06:16.865Z,103062.66
2022-10-17T08:08:44.876Z,103034.25
2022-10-17T08:11:13.907Z,103071.41
2022-10-17T08:13:41.865Z,103081.03
2022-10-17T08:16:12.729Z,103075.66
2022-10-17T08:18:41.631Z,103075.19
2022-10-17T08:21:09.725Z,102985.81
2022-10-17T08:23:37.949Z,103073.16
2022-10-17T08:26:10.571Z,103074.56
2022-10-17T08:28:40.230Z,103080.03
2022-10-17T08:31:10.951Z,103031.81
2022-10-17T08:33:38.331Z,103069.28
2022-10-17T08:36:07.298Z,103023.75
2022-10-17T08:38:36.921Z,103069.16
2022-10-17T08:41:11.945Z,103061.94
2022-10-17T08:44:04.581Z,103085.31
2022-10-17T08:46:37.839Z,103071.16
2022-10-17T08:49:13.136Z,103032.97
2022-10-17T08:51:49.808Z,103065.97
2022-10-17T08:54:22.460Z,103058.81
2022-10-17T08:56:51.421Z,103059.72
2022-10-17T08:59:23.821Z,102983.59
2022-10-17T09:02:03.375Z,103058.31
2022-10-17T09:05:07.131Z,103070.28
2022-10-17T09:07:46.454Z,103070.91
2022-10-17T09:10:19.854Z,103071.50
2022-10-17T09:13:07.995Z,103066.59
2022-10-17T09:15:53.736Z,103078.38
2022-10-17T09:18:27.921Z,103066.97
2022-10-17T09:21:00.373Z,103070.19
2022-10-17T09:23:40.356Z,103048.53
2022-10-17T09:26:11.452Z,103064.94
2022-10-17T09:28:41.281Z,103045.19
2022-10-17T09:31:19.057Z,103054.44
2022-10-17T09:33:55.517Z,103059.66
2022-10-17T09:36:37.488Z,103054.66
2022-10-17T09:39:18.013Z,103020.22
2022-10-17T09:41:50.580Z,103052.22
2022-10-17T09:44:33.178Z,103054.75
2022-10-17T09:47:41.369Z,103047.53
2022-10-17T09:50:30.541Z,103039.69
2022-10-17T09:53:22.344Z,103032.09
2022-10-17T09:55:58.344Z,103047.78
2022-10-17T09:58:41.673Z,103048.22
2022-10-17T10:01:27.691Z,103049.38
2022-10-17T10:04:13.446Z,103043.22
2022-10-17T10:07:00.553Z,103028.63
2022-10-17T10:09:31.568Z,102976.69
2022-10-17T10:12:08.406Z,102968.22
2022-10-17T10:14:37.582Z,103030.69
2022-10-17T10:17:25.345Z,103029.34
2022-10-17T10:19:53.401Z,103027.88
2022-10-17T10:22:25.866Z,102995.09
2022-10-17T10:25:15.839Z,103019.94
2022-10-17T10:27:45.263Z,103015.63
2022-10-17T10:30:32.792Z,103017.78
2022-10-17T10:33:02.142Z,103011.63
2022-10-17T10:35:35.821Z,103016.47
2022-10-17T10:38:11.036Z,103003.63
2022-10-17T10:41:08.337Z,103011.84
2022-10-17T10:43:45.530Z,103011.91
2022-10-17T10:46:22.141Z,102969.94
2022-10-17T10:48:59.879Z,102961.97
2022-10-17T10:51:29.929Z,102928.91
2022-10-17T10:54:09.114Z,102916.41
2022-10-17T10:56:48.807Z,102993.53
2022-10-17T10:59:41.433Z,102924.88
2022-10-17T11:02:49.030Z,102982.94
2022-10-17T11:05:41.942Z,102991.78
2022-10-17T11:08:36.876Z,102976.56
2022-10-17T11:11:23.972Z,102961.84
2022-10-17T11:14:03.049Z,102966.81
2022-10-17T11:16:39.098Z,102953.34
2022-10-17T11:19:09.370Z,102959.13
2022-10-17T11:22:23.992Z,102954.00
2022-10-17T11:25:04.142Z,102955.22
2022-10-17T11:27:31.717Z,102947.69
2022-10-17T11:29:59.299Z,102941.09
2022-10-17T11:32:41.706Z,102952.69
2022-10-17T11:35:28.717Z,102925.41
2022-10-17T11:38:20.071Z,102881.81
2022-10-17T11:40:51.619Z,102916.16
2022-10-17T11:43:31.233Z,102917.84
2022-10-17T11:46:19.057Z,102889.38
2022-10-17T11:49:42.292Z,102924.50
2022-10-17T11:52:51.407Z,102912.84
2022-10-17T11:55:21.742Z,102907.22
2022-10-17T11:57:48.920Z,102916.81
2022-10-17T12:00:21.936Z,102908.16
2022-10-17T12:03:07.688Z,102904.94
2022-10-17T12:05:42.884Z,102911.81
2022-10-17T12:08:13.924Z,102882.53
2022-10-17T12:11:02.854Z,102899.22
2022-10-17T12:13:30.368Z,102896.44
2022-10-17T12:16:18.427Z,102893.03
2022-10-17T12:18:52.382Z,102858.38
2022-10-17T12:21:19.751Z,102891.66
2022-10-17T12:23:55.305Z,102882.69
2022-10-17T12:26:28.653Z,102891.78
2022-10-17T12:28:57.599Z,102888.56
2022-10-17T12:31:33.397Z,102890.78
2022-10-17T12:34:03.820Z,102852.75
2022-10-17T12:37:04.816Z,102881.75
2022-10-17T12:40:02.454Z,102834.53
2022-10-17T12:42:54.068Z,102792.75
2022-10-17T12:45:49.822Z,102884.78
2022-10-17T12:48:38.461Z,102878.38
2022-10-17T12:51:34.712Z,102831.28
2022-10-17T12:54:22.864Z,102806.53
2022-10-17T12:56:50.291Z,102852.50
2022-10-17T12:59:24.383Z,102870.06
2022-10-17T13:01:58.459Z,102866.34
2022-10-17T13:04:30.184Z,102866.97
2022-10-17T13:07:04.235Z,102868.38
2022-10-17T13:09:35.637Z,102784.25
2022-10-17T13:12:05.548Z,102796.16
2022-10-17T13:14:34.097Z,102823.22
2022-10-17T13:17:05.621Z,102855.34
2022-10-17T13:19:43.377Z,102851.56
2022-10-17T13:22:24.512Z,102860.88
2022-10-17T13:24:54.316Z,102842.22
2022-10-17T13:27:34.066Z,102862.75
2022-10-17T13:30:17.740Z,102835.50
2022-10-17T13:32:45.604Z,102842.59
2022-10-17T13:35:17.298Z,102824.34
2022-10-17T13:37:53.821Z,102860.00
2022-10-17T13:40:49.063Z,102785.28
2022-10-17T13:43:20.580Z,102806.34
2022-10-17T13:45:51.617Z,102811.13
2022-10-17T13:48:28.601Z,102853.06
2022-10-17T13:51:07.890Z,102781.59
2022-10-17T13:53:56.308Z,102768.72
2022-10-17T13:56:28.925Z,102840.09
2022-10-17T13:59:03.856Z,102833.69
2022-10-17T14:01:34.824Z,102863.91
2022-10-17T14:04:19.291Z,102768.19
2022-10-17T14:06:51.177Z,102818.94
2022-10-17T14:09:22.524Z,102850.00
2022-10-17T14:12:18.760Z,102799.72
2022-10-17T14:15:09.835Z,102839.84
2022-10-17T14:17:38.758Z,102852.84
2022-10-17T14:21:32.157Z,102782.47
2022-10-17T14:23:45.062Z,102792.34
2022-10-17T14:26:16.820Z,102841.38
2022-10-17T14:28:47.916Z,102841.31
2022-10-17T14:31:25.661Z,102846.88
2022-10-17T14:33:54.417Z,102850.16
2022-10-17T14:36:37.798Z,102842.97
2022-10-17T14:39:13.338Z,102847.66
2022-10-17T14:41:44.708Z,102856.41
2022-10-17T14:44:23.472Z,102852.63
2022-10-17T14:47:24.062Z,102839.84
2022-10-17T14:49:52.390Z,102834.47
2022-10-17T14:52:19.649Z,102858.13
2022-10-17T14:54:49.097Z,102860.41
2022-10-17T14:57:19.384Z,102860.88
2022-10-17T14:59:55.392Z,102830.19
2022-10-17T15:02:29.745Z,102860.22
2022-10-17T15:04:57.756Z,102821.81
2022-10-17T15:07:25.033Z,102872.22
2022-10-17T15:09:54.112Z,102825.91
2022-10-17T15:12:28.934Z,102862.03
2022-10-17T15:14:56.546Z,102832.63
2022-10-17T15:17:25.154Z,102849.84
2022-10-17T15:19:53.717Z,102851.00
2022-10-17T15:22:28.895Z,102847.78
2022-10-17T15:24:57.190Z,102839.56
2022-10-17T15:27:26.515Z,102853.53
2022-10-17T15:29:54.749Z,102857.72
2022-10-17T15:32:22.093Z,102852.72
2022-10-17T15:34:49.663Z,102836.31
2022-10-17T15:37:22.241Z,102849.53
2022-10-17T15:39:53.661Z,102869.50
2022-10-17T15:42:23.185Z,102870.38
2022-10-17T15:44:50.614Z,102869.47
2022-10-17T15:47:28.233Z,102857.13
2022-10-17T15:49:56.182Z,102838.50
2022-10-17T15:52:24.333Z,102867.31
2022-10-17T15:54:52.280Z,102868.16
2022-10-17T15:57:29.730Z,102865.34
2022-10-17T15:59:59.847Z,102867.44
2022-10-17T16:02:27.705Z,102868.31
2022-10-17T16:04:54.816Z,102833.13
2022-10-17T16:07:22.520Z,102865.97
2022-10-17T16:09:49.735Z,102853.66
2022-10-17T16:12:28.203Z,102856.25
2022-10-17T16:14:55.699Z,102833.56
2022-10-17T16:17:23.106Z,102873.56
2022-10-17T16:19:50.706Z,102878.38
2022-10-17T16:22:32.725Z,102896.19
2022-10-17T16:25:07.863Z,102904.81
2022-10-17T16:27:39.251Z,102889.13
2022-10-17T16:30:08.304Z,102898.28
2022-10-17T16:32:35.713Z,102903.38
2022-10-17T16:35:03.370Z,102899.66
2022-10-17T16:37:30.629Z,102896.13
2022-10-17T16:39:57.833Z,102868.25
2022-10-17T16:42:25.058Z,102857.81
2022-10-17T16:44:52.479Z,102862.75
2022-10-17T16:47:20.203Z,102896.53
2022-10-17T16:49:50.152Z,102895.44
2022-10-17T16:52:22.883Z,102907.41
2022-10-17T16:54:50.946Z,102886.53
2022-10-17T16:57:19.472Z,102901.91
2022-10-17T16:59:47.051Z,102911.38
2022-10-17T17:02:17.553Z,102914.41
2022-10-17T17:04:47.694Z,102905.72
2022-10-17T17:07:15.037Z,102919.66
2022-10-17T17:09:42.512Z,102923.13
2022-10-17T17:12:09.808Z,102924.22
2022-10-17T17:14:37.126Z,102908.44
2022-10-17T17:17:04.579Z,102913.25
2022-10-17T17:19:31.871Z,102906.06
2022-10-17T17:21:59.188Z,102925.19
2022-10-17T17:24:26.644Z,102877.16
2022-10-17T17:26:55.950Z,102923.63
2022-10-17T17:29:24.823Z,102927.09
2022-10-17T17:31:52.493Z,102937.63
2022-10-17T17:34:19.871Z,102916.25
2022-10-17T17:36:47.518Z,102941.25
2022-10-17T17:39:15.946Z,102933.34
2022-10-17T17:41:44.447Z,102901.50
2022-10-17T17:44:16.808Z,102939.59
2022-10-17T17:46:45.253Z,102944.09
2022-10-17T17:49:12.707Z,102945.91
2022-10-17T17:51:41.674Z,102934.78
2022-10-17T17:54:11.769Z,102953.00
2022-10-17T17:56:39.905Z,102944.53
2022-10-17T17:59:07.546Z,102957.72
2022-10-17T18:01:41.395Z,102951.16
2022-10-17T18:04:09.850Z,102936.03
2022-10-17T18:06:38.264Z,102949.53
2022-10-17T18:09:06.908Z,102949.84
2022-10-17T18:11:34.728Z,102953.06
2022-10-17T18:14:05.565Z,102957.97
2022-10-17T18:16:34.586Z,102981.31
2022-10-17T18:19:07.269Z,102970.66
2022-10-17T18:21:36.134Z,102925.81
2022-10-17T18:24:04.976Z,102920.84
2022-10-17T18:26:32.700Z,102966.09
2022-10-17T18:29:00.115Z,102978.09
2022-10-17T18:31:45.659Z,102961.59
2022-10-17T18:34:12.976Z,102933.88
2022-10-17T18:36:40.206Z,102981.53
2022-10-17T18:39:07.771Z,102985.84
2022-10-17T18:41:35.041Z,102983.69
2022-10-17T18:44:05.549Z,102983.81
2022-10-17T18:46:36.518Z,102934.63
2022-10-17T18:49:03.824Z,102969.53
2022-10-17T18:51:30.932Z,102997.53
2022-10-17T18:54:03.106Z,102975.63
2022-10-17T18:56:31.941Z,102980.78
2022-10-17T18:58:59.940Z,102981.34
2022-10-17T19:01:27.962Z,103000.53
2022-10-17T19:03:58.023Z,102996.13
2022-10-17T19:06:32.164Z,103003.09
2022-10-17T19:09:01.187Z,103000.06
2022-10-17T19:11:30.092Z,103012.53
2022-10-17T19:13:59.777Z,103006.91
2022-10-17T19:16:29.757Z,103014.84
2022-10-17T19:19:01.980Z,102963.94
2022-10-17T19:21:38.984Z,103015.47
2022-10-17T19:24:08.727Z,103027.59
2022-10-17T19:26:37.595Z,103030.47
2022-10-17T19:29:05.866Z,102962.91
2022-10-17T19:31:34.570Z,103017.66
2022-10-17T19:34:02.852Z,103018.47
2022-10-17T19:36:33.473Z,102965.94
2022-10-17T19:39:03.621Z,103006.97
2022-10-17T19:41:37.307Z,102936.28
2022-10-17T19:44:07.834Z,102978.06
2022-10-17T19:46:39.598Z,102987.84
2022-10-17T19:49:07.277Z,103017.34
2022-10-17T19:51:34.853Z,102993.44
2022-10-17T19:54:02.611Z,102974.72
2022-10-17T19:56:36.869Z,102957.88
2022-10-17T19:59:06.430Z,103018.19
2022-10-17T20:01:36.313Z,102901.38
2022-10-17T20:04:03.944Z,102994.72
2022-10-17T20:06:32.698Z,102972.41
2022-10-17T20:09:00.277Z,102993.56
2022-10-17T20:11:29.480Z,102966.38
2022-10-17T20:13:57.732Z,103004.19
2022-10-17T20:16:28.421Z,103021.31
2022-10-17T20:18:57.580Z,103016.81
2022-10-17T20:21:37.338Z,103015.16
2022-10-17T20:24:07.714Z,102994.25
2022-10-17T20:26:39.017Z,103009.47
2022-10-17T20:29:19.786Z,103012.31
2022-10-17T20:31:48.407Z,102989.34
2022-10-17T20:34:17.441Z,103005.31
2022-10-17T20:36:44.910Z,103007.38
2022-10-17T20:39:14.331Z,103007.72
2022-10-17T20:41:43.072Z,103007.28
2022-10-17T20:44:10.812Z,102993.59
2022-10-17T20:46:44.706Z,103013.47
2022-10-17T20:49:20.901Z,102989.22
2022-10-17T20:51:48.356Z,103020.09
2022-10-17T20:54:15.631Z,103011.19
2022-10-17T20:56:42.988Z,103010.78
2022-10-17T20:59:16.459Z,103015.34
2022-10-17T21:01:45.259Z,103009.31
2022-10-17T21:04:45.328Z,103008.44
2022-10-17T21:07:00.118Z,103017.28
2022-10-17T21:09:27.499Z,103005.28
2022-10-17T21:11:55.231Z,103022.50
2022-10-17T21:14:24.396Z,103018.81
2022-10-17T21:16:54.816Z,103035.56
2022-10-17T21:19:22.206Z,103038.78
2022-10-17T21:21:49.967Z,103034.19
2022-10-17T21:24:19.397Z,103043.41
2022-10-17T21:26:50.112Z,103004.16
2022-10-17T21:29:17.572Z,102995.38
2022-10-17T21:31:45.433Z,103003.44
2022-10-17T21:34:21.400Z,103010.59
2022-10-17T21:36:49.041Z,102939.38
2022-10-17T21:39:16.851Z,102994.38
2022-10-17T21:41:44.675Z,103011.38
2022-10-17T21:44:15.137Z,103015.78
2022-10-17T21:46:43.268Z,103014.72
2022-10-17T21:49:12.750Z,103007.25
2022-10-17T21:51:40.761Z,103013.75
2022-10-17T21:54:08.025Z,103007.16
2022-10-17T21:56:36.490Z,103003.34
2022-10-17T21:59:05.003Z,103009.00
2022-10-17T22:01:35.986Z,103007.31
2022-10-17T22:04:06.528Z,103010.50
2022-10-17T22:06:40.667Z,103008.22
2022-10-17T22:09:15.643Z,102996.38
2022-10-17T22:11:46.311Z,103000.16
2022-10-17T22:14:16.634Z,102977.09
2022-10-17T22:16:45.413Z,103007.09
2022-10-17T22:19:14.405Z,103001.47
2022-10-17T22:21:41.710Z,103012.75
2022-10-17T22:24:12.272Z,102983.22
2022-10-17T22:26:40.245Z,102995.09
2022-10-17T22:29:08.729Z,103015.38
2022-10-17T22:31:37.355Z,103000.41
2022-10-17T22:34:05.926Z,103000.00
2022-10-17T22:36:34.334Z,103006.44
2022-10-17T22:39:01.687Z,102980.97
2022-10-17T22:41:29.191Z,103011.31
2022-10-17T22:43:56.533Z,102995.06
2022-10-17T22:46:23.646Z,103001.53
2022-10-17T22:48:50.717Z,103004.34
2022-10-17T22:51:17.909Z,103000.22
2022-10-17T22:53:45.182Z,102981.63
2022-10-17T22:56:15.565Z,103005.09
2022-10-17T22:58:42.876Z,102957.72
2022-10-17T23:01:14.917Z,102991.41
2022-10-17T23:03:42.266Z,103004.03
2022-10-17T23:06:10.368Z,103010.50
2022-10-17T23:08:37.856Z,103003.66
2022-10-17T23:11:05.750Z,102948.19
2022-10-17T23:13:32.961Z,103003.25
2022-10-17T23:16:00.140Z,103011.34
2022-10-17T23:18:27.613Z,102995.94
2022-10-17T23:20:55.781Z,103005.66
2022-10-17T23:23:23.326Z,102996.75
2022-10-17T23:25:51.583Z,102994.34
2022-10-17T23:28:18.957Z,102988.66
2022-10-17T23:30:46.073Z,102938.88
2022-10-17T23:33:14.426Z,102921.47
2022-10-17T23:35:42.443Z,102992.28
2022-10-17T23:38:10.012Z,102957.91
2022-10-17T23:40:37.759Z,102987.84
2022-10-17T23:43:05.516Z,102984.56
2022-10-17T23:45:35.955Z,102994.31
2022-10-17T23:48:05.592Z,102984.59
2022-10-17T23:50:32.669Z,102991.47
2022-10-17T23:52:59.734Z,102957.50
2022-10-17T23:55:26.946Z,102974.88
2022-10-17T23:57:54.017Z,102979.75
